sensor_id;sensor_type;location;lat;lon;timestamp;temperature;humidity
20319;DHT22;10317;47.254;11.314;2023-09-07T00:01:46;17.00;99.90
20319;DHT22;10317;47.254;11.314;2023-09-07T00:04:12;17.00;99.90
20319;DHT22;10317;47.254;11.314;2023-09-07T00:06:41;17.00;99.90
20319;DHT22;10317;47.254;11.314;2023-09-07T00:09:09;16.90;99.90
20319;DHT22;10317;47.254;11.314;2023-09-07T00:11:37;16.90;99.90
20319;DHT22;10317;47.254;11.314;2023-09-07T00:14:02;16.90;99.90
20319;DHT22;10317;47.254;11.314;2023-09-07T00:16:28;16.90;99.90
20319;DHT22;10317;47.254;11.314;2023-09-07T00:18:53;16.80;99.90
20319;DHT22;10317;47.254;11.314;2023-09-07T00:21:19;16.80;99.90
20319;DHT22;10317;47.254;11.314;2023-09-07T00:23:45;16.70;99.90
20319;DHT22;10317;47.254;11.314;2023-09-07T00:26:10;16.80;99.90
20319;DHT22;10317;47.254;11.314;2023-09-07T00:28:38;16.70;99.90
20319;DHT22;10317;47.254;11.314;2023-09-07T00:31:04;16.70;99.90
20319;DHT22;10317;47.254;11.314;2023-09-07T00:33:29;16.60;99.90
20319;DHT22;10317;47.254;11.314;2023-09-07T00:35:55;16.70;99.90
20319;DHT22;10317;47.254;11.314;2023-09-07T00:38:20;16.60;99.90
20319;DHT22;10317;47.254;11.314;2023-09-07T00:40:46;16.60;99.90
20319;DHT22;10317;47.254;11.314;2023-09-07T00:43:12;16.60;99.90
20319;DHT22;10317;47.254;11.314;2023-09-07T00:45:38;16.50;99.90
20319;DHT22;10317;47.254;11.314;2023-09-07T00:48:05;16.50;99.90
20319;DHT22;10317;47.254;11.314;2023-09-07T00:50:31;16.50;99.90
20319;DHT22;10317;47.254;11.314;2023-09-07T00:52:58;16.50;99.90
20319;DHT22;10317;47.254;11.314;2023-09-07T00:55:25;16.40;99.90
20319;DHT22;10317;47.254;11.314;2023-09-07T00:57:51;16.50;99.90
20319;DHT22;10317;47.254;11.314;2023-09-07T01:00:17;16.40;99.90
20319;DHT22;10317;47.254;11.314;2023-09-07T01:02:43;16.40;99.90
20319;DHT22;10317;47.254;11.314;2023-09-07T01:05:11;16.30;99.90
20319;DHT22;10317;47.254;11.314;2023-09-07T01:07:48;16.30;99.90
20319;DHT22;10317;47.254;11.314;2023-09-07T01:10:19;16.30;99.90
20319;DHT22;10317;47.254;11.314;2023-09-07T01:12:47;16.30;99.90
20319;DHT22;10317;47.254;11.314;2023-09-07T01:15:12;16.30;99.90
20319;DHT22;10317;47.254;11.314;2023-09-07T01:17:38;16.20;99.90
20319;DHT22;10317;47.254;11.314;2023-09-07T01:20:05;16.20;99.90
20319;DHT22;10317;47.254;11.314;2023-09-07T01:22:33;16.20;99.90
20319;DHT22;10317;47.254;11.314;2023-09-07T01:25:00;16.10;99.90
20319;DHT22;10317;47.254;11.314;2023-09-07T01:27:27;16.10;99.90
20319;DHT22;10317;47.254;11.314;2023-09-07T01:29:53;16.10;99.90
20319;DHT22;10317;47.254;11.314;2023-09-07T01:32:18;16.10;99.90
20319;DHT22;10317;47.254;11.314;2023-09-07T01:34:44;16.10;99.90
20319;DHT22;10317;47.254;11.314;2023-09-07T01:37:10;16.00;99.90
20319;DHT22;10317;47.254;11.314;2023-09-07T01:39:35;16.00;99.90
20319;DHT22;10317;47.254;11.314;2023-09-07T01:42:01;16.00;99.90
20319;DHT22;10317;47.254;11.314;2023-09-07T01:44:26;16.00;99.90
20319;DHT22;10317;47.254;11.314;2023-09-07T01:46:52;15.90;99.90
20319;DHT22;10317;47.254;11.314;2023-09-07T01:49:18;15.90;99.90
20319;DHT22;10317;47.254;11.314;2023-09-07T01:51:44;15.90;99.90
20319;DHT22;10317;47.254;11.314;2023-09-07T01:54:09;15.90;99.90
20319;DHT22;10317;47.254;11.314;2023-09-07T01:56:36;15.90;99.90
20319;DHT22;10317;47.254;11.314;2023-09-07T01:59:02;15.90;99.90
20319;DHT22;10317;47.254;11.314;2023-09-07T02:01:30;15.90;99.90
20319;DHT22;10317;47.254;11.314;2023-09-07T02:03:57;15.80;99.90
20319;DHT22;10317;47.254;11.314;2023-09-07T02:06:23;15.80;99.90
20319;DHT22;10317;47.254;11.314;2023-09-07T02:08:49;15.80;99.90
20319;DHT22;10317;47.254;11.314;2023-09-07T02:11:15;15.80;99.90
20319;DHT22;10317;47.254;11.314;2023-09-07T02:13:45;15.80;99.90
20319;DHT22;10317;47.254;11.314;2023-09-07T02:16:11;15.80;99.90
20319;DHT22;10317;47.254;11.314;2023-09-07T02:18:37;15.80;99.90
20319;DHT22;10317;47.254;11.314;2023-09-07T02:21:11;15.70;99.90
20319;DHT22;10317;47.254;11.314;2023-09-07T02:23:38;15.70;99.90
20319;DHT22;10317;47.254;11.314;2023-09-07T02:26:04;15.70;99.90
20319;DHT22;10317;47.254;11.314;2023-09-07T02:28:30;15.60;99.90
20319;DHT22;10317;47.254;11.314;2023-09-07T02:31:02;15.70;99.90
20319;DHT22;10317;47.254;11.314;2023-09-07T02:33:29;15.60;99.90
20319;DHT22;10317;47.254;11.314;2023-09-07T02:35:54;15.60;99.90
20319;DHT22;10317;47.254;11.314;2023-09-07T02:38:21;15.60;99.90
20319;DHT22;10317;47.254;11.314;2023-09-07T02:40:46;15.60;99.90
20319;DHT22;10317;47.254;11.314;2023-09-07T02:43:12;15.60;99.90
20319;DHT22;10317;47.254;11.314;2023-09-07T02:45:38;15.50;99.90
20319;DHT22;10317;47.254;11.314;2023-09-07T02:48:05;15.50;99.90
20319;DHT22;10317;47.254;11.314;2023-09-07T02:50:33;15.50;99.90
20319;DHT22;10317;47.254;11.314;2023-09-07T02:52:59;15.50;99.90
20319;DHT22;10317;47.254;11.314;2023-09-07T02:55:28;15.50;99.90
20319;DHT22;10317;47.254;11.314;2023-09-07T02:57:57;15.50;99.90
20319;DHT22;10317;47.254;11.314;2023-09-07T03:00:23;15.50;99.90
20319;DHT22;10317;47.254;11.314;2023-09-07T03:02:49;15.50;99.90
20319;DHT22;10317;47.254;11.314;2023-09-07T03:05:15;15.50;99.90
20319;DHT22;10317;47.254;11.314;2023-09-07T03:07:41;15.40;99.90
20319;DHT22;10317;47.254;11.314;2023-09-07T03:10:07;15.40;99.90
20319;DHT22;10317;47.254;11.314;2023-09-07T03:12:34;15.40;99.90
20319;DHT22;10317;47.254;11.314;2023-09-07T03:14:59;15.40;99.90
20319;DHT22;10317;47.254;11.314;2023-09-07T03:17:29;15.30;99.90
20319;DHT22;10317;47.254;11.314;2023-09-07T03:19:54;15.30;99.90
20319;DHT22;10317;47.254;11.314;2023-09-07T03:22:20;15.30;99.90
20319;DHT22;10317;47.254;11.314;2023-09-07T03:24:46;15.30;99.90
20319;DHT22;10317;47.254;11.314;2023-09-07T03:27:12;15.30;99.90
20319;DHT22;10317;47.254;11.314;2023-09-07T03:29:38;15.20;99.90
20319;DHT22;10317;47.254;11.314;2023-09-07T03:32:04;15.20;99.90
20319;DHT22;10317;47.254;11.314;2023-09-07T03:34:31;15.20;99.90
20319;DHT22;10317;47.254;11.314;2023-09-07T03:36:57;15.20;99.90
20319;DHT22;10317;47.254;11.314;2023-09-07T03:39:22;15.20;99.90
20319;DHT22;10317;47.254;11.314;2023-09-07T03:41:48;15.20;99.90
20319;DHT22;10317;47.254;11.314;2023-09-07T03:44:14;15.10;99.90
20319;DHT22;10317;47.254;11.314;2023-09-07T03:46:40;15.10;99.90
20319;DHT22;10317;47.254;11.314;2023-09-07T03:49:05;15.10;99.90
20319;DHT22;10317;47.254;11.314;2023-09-07T03:51:31;15.10;99.90
20319;DHT22;10317;47.254;11.314;2023-09-07T03:53:57;15.00;99.90
20319;DHT22;10317;47.254;11.314;2023-09-07T03:56:22;15.10;99.90
20319;DHT22;10317;47.254;11.314;2023-09-07T03:58:48;15.10;99.90
20319;DHT22;10317;47.254;11.314;2023-09-07T04:01:14;15.00;99.90
20319;DHT22;10317;47.254;11.314;2023-09-07T04:03:40;15.00;99.90
20319;DHT22;10317;47.254;11.314;2023-09-07T04:06:06;15.00;99.90
20319;DHT22;10317;47.254;11.314;2023-09-07T04:08:32;15.00;99.90
20319;DHT22;10317;47.254;11.314;2023-09-07T04:10:58;14.90;99.90
20319;DHT22;10317;47.254;11.314;2023-09-07T04:13:23;14.90;99.90
20319;DHT22;10317;47.254;11.314;2023-09-07T04:15:49;14.90;99.90
20319;DHT22;10317;47.254;11.314;2023-09-07T04:18:15;14.90;99.90
20319;DHT22;10317;47.254;11.314;2023-09-07T04:20:42;14.90;99.90
20319;DHT22;10317;47.254;11.314;2023-09-07T04:23:08;14.80;99.90
20319;DHT22;10317;47.254;11.314;2023-09-07T04:25:34;14.80;99.90
20319;DHT22;10317;47.254;11.314;2023-09-07T04:27:59;14.80;99.90
20319;DHT22;10317;47.254;11.314;2023-09-07T04:30:25;14.80;99.90
20319;DHT22;10317;47.254;11.314;2023-09-07T04:32:51;14.80;99.90
20319;DHT22;10317;47.254;11.314;2023-09-07T04:35:17;14.80;99.90
20319;DHT22;10317;47.254;11.314;2023-09-07T04:37:43;14.80;99.90
20319;DHT22;10317;47.254;11.314;2023-09-07T04:40:10;14.80;99.90
20319;DHT22;10317;47.254;11.314;2023-09-07T04:42:36;14.70;99.90
20319;DHT22;10317;47.254;11.314;2023-09-07T04:45:04;14.70;99.90
20319;DHT22;10317;47.254;11.314;2023-09-07T04:47:30;14.70;99.90
20319;DHT22;10317;47.254;11.314;2023-09-07T04:49:55;14.70;99.90
20319;DHT22;10317;47.254;11.314;2023-09-07T04:52:21;14.70;99.90
20319;DHT22;10317;47.254;11.314;2023-09-07T04:54:47;14.70;99.90
20319;DHT22;10317;47.254;11.314;2023-09-07T04:57:16;14.70;99.90
20319;DHT22;10317;47.254;11.314;2023-09-07T04:59:45;14.70;99.90
20319;DHT22;10317;47.254;11.314;2023-09-07T05:02:10;14.70;99.90
20319;DHT22;10317;47.254;11.314;2023-09-07T05:04:37;14.70;99.90
20319;DHT22;10317;47.254;11.314;2023-09-07T05:07:03;14.70;99.90
20319;DHT22;10317;47.254;11.314;2023-09-07T05:09:29;14.70;99.90
20319;DHT22;10317;47.254;11.314;2023-09-07T05:11:55;14.70;99.90
20319;DHT22;10317;47.254;11.314;2023-09-07T05:14:22;14.70;99.90
20319;DHT22;10317;47.254;11.314;2023-09-07T05:16:48;14.70;99.90
20319;DHT22;10317;47.254;11.314;2023-09-07T05:19:14;14.60;99.90
20319;DHT22;10317;47.254;11.314;2023-09-07T05:21:39;14.70;99.90
20319;DHT22;10317;47.254;11.314;2023-09-07T05:24:05;14.70;99.90
20319;DHT22;10317;47.254;11.314;2023-09-07T05:26:31;14.70;99.90
20319;DHT22;10317;47.254;11.314;2023-09-07T05:28:57;14.70;99.90
20319;DHT22;10317;47.254;11.314;2023-09-07T05:31:22;14.70;99.90
20319;DHT22;10317;47.254;11.314;2023-09-07T05:33:48;14.80;99.90
20319;DHT22;10317;47.254;11.314;2023-09-07T05:36:13;14.70;99.90
20319;DHT22;10317;47.254;11.314;2023-09-07T05:38:39;14.80;99.90
20319;DHT22;10317;47.254;11.314;2023-09-07T05:41:05;14.80;99.90
20319;DHT22;10317;47.254;11.314;2023-09-07T05:43:31;14.80;99.90
20319;DHT22;10317;47.254;11.314;2023-09-07T05:45:56;14.90;99.90
20319;DHT22;10317;47.254;11.314;2023-09-07T05:48:22;14.90;99.90
20319;DHT22;10317;47.254;11.314;2023-09-07T05:50:48;14.80;99.90
20319;DHT22;10317;47.254;11.314;2023-09-07T05:53:13;14.90;99.90
20319;DHT22;10317;47.254;11.314;2023-09-07T05:55:39;14.90;99.90
20319;DHT22;10317;47.254;11.314;2023-09-07T05:58:07;14.90;99.90
20319;DHT22;10317;47.254;11.314;2023-09-07T06:00:34;15.00;99.90
20319;DHT22;10317;47.254;11.314;2023-09-07T06:03:00;15.00;99.90
20319;DHT22;10317;47.254;11.314;2023-09-07T06:05:26;15.10;99.90
20319;DHT22;10317;47.254;11.314;2023-09-07T06:07:52;15.10;99.90
20319;DHT22;10317;47.254;11.314;2023-09-07T06:10:18;15.20;99.90
20319;DHT22;10317;47.254;11.314;2023-09-07T06:12:45;15.20;99.90
20319;DHT22;10317;47.254;11.314;2023-09-07T06:15:11;15.30;99.90
20319;DHT22;10317;47.254;11.314;2023-09-07T06:17:37;15.40;99.90
20319;DHT22;10317;47.254;11.314;2023-09-07T06:20:03;15.40;99.90
20319;DHT22;10317;47.254;11.314;2023-09-07T06:22:28;15.50;99.90
20319;DHT22;10317;47.254;11.314;2023-09-07T06:24:54;15.60;99.90
20319;DHT22;10317;47.254;11.314;2023-09-07T06:27:20;15.60;99.90
20319;DHT22;10317;47.254;11.314;2023-09-07T06:29:46;15.70;99.90
20319;DHT22;10317;47.254;11.314;2023-09-07T06:32:11;15.60;99.90
20319;DHT22;10317;47.254;11.314;2023-09-07T06:34:37;15.70;99.90
20319;DHT22;10317;47.254;11.314;2023-09-07T06:37:04;15.70;99.90
20319;DHT22;10317;47.254;11.314;2023-09-07T06:39:29;15.80;99.90
20319;DHT22;10317;47.254;11.314;2023-09-07T06:41:55;15.80;99.90
20319;DHT22;10317;47.254;11.314;2023-09-07T06:44:21;15.90;99.90
20319;DHT22;10317;47.254;11.314;2023-09-07T06:46:46;16.00;99.90
20319;DHT22;10317;47.254;11.314;2023-09-07T06:49:12;16.00;99.90
20319;DHT22;10317;47.254;11.314;2023-09-07T06:51:38;16.10;99.90
20319;DHT22;10317;47.254;11.314;2023-09-07T06:54:04;16.20;99.90
20319;DHT22;10317;47.254;11.314;2023-09-07T06:56:29;16.30;99.90
20319;DHT22;10317;47.254;11.314;2023-09-07T06:58:57;16.50;99.90
20319;DHT22;10317;47.254;11.314;2023-09-07T07:01:23;16.60;99.90
20319;DHT22;10317;47.254;11.314;2023-09-07T07:03:49;16.70;99.90
20319;DHT22;10317;47.254;11.314;2023-09-07T07:06:15;16.90;99.90
20319;DHT22;10317;47.254;11.314;2023-09-07T07:08:40;17.00;99.90
20319;DHT22;10317;47.254;11.314;2023-09-07T07:11:06;17.10;99.90
20319;DHT22;10317;47.254;11.314;2023-09-07T07:13:32;17.30;99.90
20319;DHT22;10317;47.254;11.314;2023-09-07T07:15:57;17.40;99.90
20319;DHT22;10317;47.254;11.314;2023-09-07T07:18:23;17.60;99.90
20319;DHT22;10317;47.254;11.314;2023-09-07T07:20:48;17.80;99.90
20319;DHT22;10317;47.254;11.314;2023-09-07T07:23:16;18.00;99.90
20319;DHT22;10317;47.254;11.314;2023-09-07T07:25:41;18.20;99.90
20319;DHT22;10317;47.254;11.314;2023-09-07T07:28:07;18.50;99.90
20319;DHT22;10317;47.254;11.314;2023-09-07T07:30:34;18.80;99.90
20319;DHT22;10317;47.254;11.314;2023-09-07T07:33:00;19.20;99.90
20319;DHT22;10317;47.254;11.314;2023-09-07T07:35:26;19.90;99.90
20319;DHT22;10317;47.254;11.314;2023-09-07T07:37:52;20.50;99.90
20319;DHT22;10317;47.254;11.314;2023-09-07T07:40:18;21.30;99.90
20319;DHT22;10317;47.254;11.314;2023-09-07T07:42:45;22.00;99.90
20319;DHT22;10317;47.254;11.314;2023-09-07T07:45:11;22.80;99.90
20319;DHT22;10317;47.254;11.314;2023-09-07T07:47:38;23.50;99.90
20319;DHT22;10317;47.254;11.314;2023-09-07T07:50:04;24.00;99.90
20319;DHT22;10317;47.254;11.314;2023-09-07T07:52:30;24.30;99.90
20319;DHT22;10317;47.254;11.314;2023-09-07T07:54:56;24.60;98.60
20319;DHT22;10317;47.254;11.314;2023-09-07T07:57:22;24.70;97.50
20319;DHT22;10317;47.254;11.314;2023-09-07T07:59:47;24.80;97.50
20319;DHT22;10317;47.254;11.314;2023-09-07T08:02:13;24.90;96.70
20319;DHT22;10317;47.254;11.314;2023-09-07T08:04:39;24.90;96.50
20319;DHT22;10317;47.254;11.314;2023-09-07T08:07:04;25.00;95.30
20319;DHT22;10317;47.254;11.314;2023-09-07T08:09:32;25.00;95.40
20319;DHT22;10317;47.254;11.314;2023-09-07T08:11:58;25.10;94.10
20319;DHT22;10317;47.254;11.314;2023-09-07T08:14:25;25.20;92.60
20319;DHT22;10317;47.254;11.314;2023-09-07T08:16:52;25.30;91.80
20319;DHT22;10317;47.254;11.314;2023-09-07T08:19:18;25.40;90.40
20319;DHT22;10317;47.254;11.314;2023-09-07T08:21:43;25.60;90.10
20319;DHT22;10317;47.254;11.314;2023-09-07T08:24:11;25.70;87.90
20319;DHT22;10317;47.254;11.314;2023-09-07T08:26:37;25.80;88.60
20319;DHT22;10317;47.254;11.314;2023-09-07T08:29:03;25.80;86.70
20319;DHT22;10317;47.254;11.314;2023-09-07T08:31:37;25.90;85.20
20319;DHT22;10317;47.254;11.314;2023-09-07T08:34:05;25.90;84.60
20319;DHT22;10317;47.254;11.314;2023-09-07T08:36:31;25.90;83.70
20319;DHT22;10317;47.254;11.314;2023-09-07T08:39:06;26.00;86.10
20319;DHT22;10317;47.254;11.314;2023-09-07T08:41:37;26.00;85.40
20319;DHT22;10317;47.254;11.314;2023-09-07T08:44:19;26.00;82.60
20319;DHT22;10317;47.254;11.314;2023-09-07T08:46:49;26.00;82.40
20319;DHT22;10317;47.254;11.314;2023-09-07T08:49:16;26.00;82.40
20319;DHT22;10317;47.254;11.314;2023-09-07T08:51:45;26.00;82.90
20319;DHT22;10317;47.254;11.314;2023-09-07T08:54:12;26.10;83.20
20319;DHT22;10317;47.254;11.314;2023-09-07T08:56:38;26.10;81.70
20319;DHT22;10317;47.254;11.314;2023-09-07T08:59:04;26.30;78.00
20319;DHT22;10317;47.254;11.314;2023-09-07T09:01:30;26.40;78.60
20319;DHT22;10317;47.254;11.314;2023-09-07T09:03:59;26.40;77.80
20319;DHT22;10317;47.254;11.314;2023-09-07T09:06:25;26.60;77.20
20319;DHT22;10317;47.254;11.314;2023-09-07T09:08:54;26.80;75.50
20319;DHT22;10317;47.254;11.314;2023-09-07T09:11:21;26.80;75.80
20319;DHT22;10317;47.254;11.314;2023-09-07T09:13:49;26.90;76.30
20319;DHT22;10317;47.254;11.314;2023-09-07T09:16:15;27.00;76.90
20319;DHT22;10317;47.254;11.314;2023-09-07T09:18:53;27.00;77.20
20319;DHT22;10317;47.254;11.314;2023-09-07T09:21:24;27.10;77.00
20319;DHT22;10317;47.254;11.314;2023-09-07T09:23:52;27.20;75.80
20319;DHT22;10317;47.254;11.314;2023-09-07T09:26:19;27.20;74.50
20319;DHT22;10317;47.254;11.314;2023-09-07T09:28:45;27.20;74.10
20319;DHT22;10317;47.254;11.314;2023-09-07T09:31:11;27.30;74.00
20319;DHT22;10317;47.254;11.314;2023-09-07T09:33:48;27.30;73.70
20319;DHT22;10317;47.254;11.314;2023-09-07T09:36:14;27.40;74.10
20319;DHT22;10317;47.254;11.314;2023-09-07T09:38:39;27.50;73.80
20319;DHT22;10317;47.254;11.314;2023-09-07T09:41:06;27.60;76.00
20319;DHT22;10317;47.254;11.314;2023-09-07T09:43:34;27.60;76.00
20319;DHT22;10317;47.254;11.314;2023-09-07T09:46:00;27.60;74.80
20319;DHT22;10317;47.254;11.314;2023-09-07T09:48:27;27.60;75.70
20319;DHT22;10317;47.254;11.314;2023-09-07T09:50:53;27.60;75.70
20319;DHT22;10317;47.254;11.314;2023-09-07T09:53:19;27.60;73.50
20319;DHT22;10317;47.254;11.314;2023-09-07T09:55:49;27.70;74.30
20319;DHT22;10317;47.254;11.314;2023-09-07T09:58:17;27.70;73.40
20319;DHT22;10317;47.254;11.314;2023-09-07T10:00:49;27.80;73.90
20319;DHT22;10317;47.254;11.314;2023-09-07T10:03:20;28.00;72.80
20319;DHT22;10317;47.254;11.314;2023-09-07T10:05:49;28.10;70.10
20319;DHT22;10317;47.254;11.314;2023-09-07T10:08:18;28.20;69.30
20319;DHT22;10317;47.254;11.314;2023-09-07T10:10:47;28.30;68.60
20319;DHT22;10317;47.254;11.314;2023-09-07T10:13:17;28.40;69.90
20319;DHT22;10317;47.254;11.314;2023-09-07T10:16:03;28.50;70.20
20319;DHT22;10317;47.254;11.314;2023-09-07T10:18:37;28.70;71.30
20319;DHT22;10317;47.254;11.314;2023-09-07T10:21:03;28.70;72.30
20319;DHT22;10317;47.254;11.314;2023-09-07T10:23:36;28.70;72.50
20319;DHT22;10317;47.254;11.314;2023-09-07T10:26:04;28.90;73.20
20319;DHT22;10317;47.254;11.314;2023-09-07T10:28:32;29.00;73.50
20319;DHT22;10317;47.254;11.314;2023-09-07T10:31:05;29.10;70.90
20319;DHT22;10317;47.254;11.314;2023-09-07T10:33:35;29.50;70.80
20319;DHT22;10317;47.254;11.314;2023-09-07T10:36:02;29.90;70.40
20319;DHT22;10317;47.254;11.314;2023-09-07T10:38:30;30.40;73.00
20319;DHT22;10317;47.254;11.314;2023-09-07T10:40:58;31.10;66.10
20319;DHT22;10317;47.254;11.314;2023-09-07T10:43:28;32.00;65.90
20319;DHT22;10317;47.254;11.314;2023-09-07T10:45:58;32.70;58.40
20319;DHT22;10317;47.254;11.314;2023-09-07T10:48:30;33.50;60.00
20319;DHT22;10317;47.254;11.314;2023-09-07T10:50:56;34.20;56.40
20319;DHT22;10317;47.254;11.314;2023-09-07T10:53:27;34.90;54.70
20319;DHT22;10317;47.254;11.314;2023-09-07T10:55:53;35.70;58.80
20319;DHT22;10317;47.254;11.314;2023-09-07T10:58:33;36.40;57.20
20319;DHT22;10317;47.254;11.314;2023-09-07T11:00:59;37.10;54.00
20319;DHT22;10317;47.254;11.314;2023-09-07T11:03:26;37.70;53.00
20319;DHT22;10317;47.254;11.314;2023-09-07T11:05:59;38.00;52.40
20319;DHT22;10317;47.254;11.314;2023-09-07T11:08:26;37.90;52.40
20319;DHT22;10317;47.254;11.314;2023-09-07T11:10:53;37.50;52.30
20319;DHT22;10317;47.254;11.314;2023-09-07T11:13:18;37.20;52.10
20319;DHT22;10317;47.254;11.314;2023-09-07T11:15:44;36.80;50.30
20319;DHT22;10317;47.254;11.314;2023-09-07T11:18:10;36.40;50.80
20319;DHT22;10317;47.254;11.314;2023-09-07T11:20:36;36.10;52.50
20319;DHT22;10317;47.254;11.314;2023-09-07T11:23:02;36.00;51.80
20319;DHT22;10317;47.254;11.314;2023-09-07T11:25:35;35.90;52.20
20319;DHT22;10317;47.254;11.314;2023-09-07T11:28:03;35.90;50.70
20319;DHT22;10317;47.254;11.314;2023-09-07T11:30:28;35.70;51.80
20319;DHT22;10317;47.254;11.314;2023-09-07T11:33:02;35.60;52.10
20319;DHT22;10317;47.254;11.314;2023-09-07T11:35:28;35.50;51.60
20319;DHT22;10317;47.254;11.314;2023-09-07T11:37:54;35.20;51.50
20319;DHT22;10317;47.254;11.314;2023-09-07T11:40:19;35.20;52.10
20319;DHT22;10317;47.254;11.314;2023-09-07T11:42:45;35.20;53.20
20319;DHT22;10317;47.254;11.314;2023-09-07T11:45:10;35.00;52.20
20319;DHT22;10317;47.254;11.314;2023-09-07T11:47:39;35.00;53.60
20319;DHT22;10317;47.254;11.314;2023-09-07T11:50:05;35.00;52.70
20319;DHT22;10317;47.254;11.314;2023-09-07T11:52:32;35.00;51.10
20319;DHT22;10317;47.254;11.314;2023-09-07T11:54:58;34.90;51.10
20319;DHT22;10317;47.254;11.314;2023-09-07T11:57:23;34.90;50.60
20319;DHT22;10317;47.254;11.314;2023-09-07T11:59:50;34.80;51.00
20319;DHT22;10317;47.254;11.314;2023-09-07T12:02:15;34.80;50.90
20319;DHT22;10317;47.254;11.314;2023-09-07T12:04:43;34.90;50.50
20319;DHT22;10317;47.254;11.314;2023-09-07T12:07:09;34.90;51.10
20319;DHT22;10317;47.254;11.314;2023-09-07T12:09:35;34.90;51.30
20319;DHT22;10317;47.254;11.314;2023-09-07T12:12:01;34.90;51.90
20319;DHT22;10317;47.254;11.314;2023-09-07T12:14:26;34.90;51.90
20319;DHT22;10317;47.254;11.314;2023-09-07T12:16:52;34.90;51.90
20319;DHT22;10317;47.254;11.314;2023-09-07T12:19:18;34.90;50.30
20319;DHT22;10317;47.254;11.314;2023-09-07T12:21:43;34.70;50.80
20319;DHT22;10317;47.254;11.314;2023-09-07T12:24:09;34.80;50.70
20319;DHT22;10317;47.254;11.314;2023-09-07T12:26:35;34.90;49.80
20319;DHT22;10317;47.254;11.314;2023-09-07T12:29:00;34.80;50.90
20319;DHT22;10317;47.254;11.314;2023-09-07T12:31:26;34.70;50.90
20319;DHT22;10317;47.254;11.314;2023-09-07T12:33:52;34.70;50.00
20319;DHT22;10317;47.254;11.314;2023-09-07T12:36:18;34.80;50.70
20319;DHT22;10317;47.254;11.314;2023-09-07T12:38:43;34.90;51.00
20319;DHT22;10317;47.254;11.314;2023-09-07T12:41:09;35.00;50.80
20319;DHT22;10317;47.254;11.314;2023-09-07T12:43:35;35.00;50.60
20319;DHT22;10317;47.254;11.314;2023-09-07T12:46:01;35.00;51.40
20319;DHT22;10317;47.254;11.314;2023-09-07T12:48:27;35.10;51.20
20319;DHT22;10317;47.254;11.314;2023-09-07T12:50:54;35.00;50.20
20319;DHT22;10317;47.254;11.314;2023-09-07T12:53:20;35.00;50.60
20319;DHT22;10317;47.254;11.314;2023-09-07T12:55:45;35.10;50.50
20319;DHT22;10317;47.254;11.314;2023-09-07T12:58:11;35.10;50.00
20319;DHT22;10317;47.254;11.314;2023-09-07T13:00:36;35.10;49.70
20319;DHT22;10317;47.254;11.314;2023-09-07T13:03:02;35.10;50.90
20319;DHT22;10317;47.254;11.314;2023-09-07T13:05:28;35.10;50.40
20319;DHT22;10317;47.254;11.314;2023-09-07T13:07:54;35.10;50.80
20319;DHT22;10317;47.254;11.314;2023-09-07T13:10:20;35.10;50.20
20319;DHT22;10317;47.254;11.314;2023-09-07T13:12:45;35.00;50.70
20319;DHT22;10317;47.254;11.314;2023-09-07T13:15:11;34.90;49.90
20319;DHT22;10317;47.254;11.314;2023-09-07T13:17:37;34.90;51.60
20319;DHT22;10317;47.254;11.314;2023-09-07T13:20:03;34.90;51.50
20319;DHT22;10317;47.254;11.314;2023-09-07T13:22:28;35.00;52.00
20319;DHT22;10317;47.254;11.314;2023-09-07T13:24:54;35.00;51.00
20319;DHT22;10317;47.254;11.314;2023-09-07T13:27:20;35.00;51.60
20319;DHT22;10317;47.254;11.314;2023-09-07T13:29:45;35.00;50.30
20319;DHT22;10317;47.254;11.314;2023-09-07T13:32:11;34.90;48.80
20319;DHT22;10317;47.254;11.314;2023-09-07T13:34:37;34.80;49.90
20319;DHT22;10317;47.254;11.314;2023-09-07T13:37:03;34.80;49.70
20319;DHT22;10317;47.254;11.314;2023-09-07T13:39:29;34.80;49.40
20319;DHT22;10317;47.254;11.314;2023-09-07T13:41:54;34.90;46.90
20319;DHT22;10317;47.254;11.314;2023-09-07T13:44:20;34.80;46.60
20319;DHT22;10317;47.254;11.314;2023-09-07T13:46:46;34.70;46.60
20319;DHT22;10317;47.254;11.314;2023-09-07T13:49:12;34.70;47.00
20319;DHT22;10317;47.254;11.314;2023-09-07T13:51:40;34.60;46.80
20319;DHT22;10317;47.254;11.314;2023-09-07T13:54:06;34.50;47.60
20319;DHT22;10317;47.254;11.314;2023-09-07T13:56:33;34.50;47.70
20319;DHT22;10317;47.254;11.314;2023-09-07T13:58:59;34.40;47.50
20319;DHT22;10317;47.254;11.314;2023-09-07T14:01:25;34.40;48.00
20319;DHT22;10317;47.254;11.314;2023-09-07T14:03:51;34.40;48.60
20319;DHT22;10317;47.254;11.314;2023-09-07T14:06:17;34.30;49.40
20319;DHT22;10317;47.254;11.314;2023-09-07T14:08:43;34.30;48.70
20319;DHT22;10317;47.254;11.314;2023-09-07T14:11:10;34.20;48.10
20319;DHT22;10317;47.254;11.314;2023-09-07T14:13:36;34.20;48.00
20319;DHT22;10317;47.254;11.314;2023-09-07T14:16:02;34.10;48.40
20319;DHT22;10317;47.254;11.314;2023-09-07T14:18:28;34.00;48.70
20319;DHT22;10317;47.254;11.314;2023-09-07T14:20:54;33.90;48.10
20319;DHT22;10317;47.254;11.314;2023-09-07T14:23:23;33.80;48.30
20319;DHT22;10317;47.254;11.314;2023-09-07T14:25:51;33.60;47.20
20319;DHT22;10317;47.254;11.314;2023-09-07T14:28:17;33.50;48.00
20319;DHT22;10317;47.254;11.314;2023-09-07T14:30:43;33.40;47.20
20319;DHT22;10317;47.254;11.314;2023-09-07T14:33:08;33.30;48.80
20319;DHT22;10317;47.254;11.314;2023-09-07T14:35:34;33.10;49.00
20319;DHT22;10317;47.254;11.314;2023-09-07T14:38:00;33.00;49.90
20319;DHT22;10317;47.254;11.314;2023-09-07T14:40:26;32.80;49.90
20319;DHT22;10317;47.254;11.314;2023-09-07T14:42:51;32.60;49.50
20319;DHT22;10317;47.254;11.314;2023-09-07T14:45:19;32.40;49.70
20319;DHT22;10317;47.254;11.314;2023-09-07T14:47:45;32.30;50.30
20319;DHT22;10317;47.254;11.314;2023-09-07T14:50:10;32.10;50.30
20319;DHT22;10317;47.254;11.314;2023-09-07T14:52:36;31.90;50.50
20319;DHT22;10317;47.254;11.314;2023-09-07T14:55:06;31.70;51.20
20319;DHT22;10317;47.254;11.314;2023-09-07T14:57:32;31.50;51.30
20319;DHT22;10317;47.254;11.314;2023-09-07T14:59:59;31.40;51.90
20319;DHT22;10317;47.254;11.314;2023-09-07T15:02:25;31.20;52.60
20319;DHT22;10317;47.254;11.314;2023-09-07T15:04:51;31.00;52.30
20319;DHT22;10317;47.254;11.314;2023-09-07T15:07:17;30.90;53.40
20319;DHT22;10317;47.254;11.314;2023-09-07T15:09:42;30.70;53.70
20319;DHT22;10317;47.254;11.314;2023-09-07T15:12:08;30.50;54.30